createdAt,value
2023-03-23T16:00:19.312Z,19.70
2023-03-23T16:02:50.154Z,19.71
2023-03-23T16:05:18.660Z,19.71
2023-03-23T16:07:48.558Z,19.74
2023-03-23T16:10:18.976Z,19.73
2023-03-23T16:12:47.707Z,19.74
2023-03-23T16:15:17.115Z,19.74
2023-03-23T16:17:46.461Z,19.74
2023-03-23T16:20:19.275Z,19.76
2023-03-23T16:22:50.310Z,19.77
2023-03-23T16:25:19.762Z,19.75
2023-03-23T16:27:52.274Z,19.75
2023-03-23T16:30:25.405Z,19.75
2023-03-23T16:32:57.051Z,19.76
2023-03-23T16:35:26.644Z,19.75
2023-03-23T16:38:08.046Z,19.78
2023-03-23T16:40:38.585Z,19.79
2023-03-23T16:43:09.037Z,19.81
2023-03-23T16:45:43.181Z,19.81
2023-03-23T16:48:13.037Z,19.82
2023-03-23T16:50:42.165Z,19.84
2023-03-23T16:53:12.599Z,19.85
2023-03-23T16:55:42.118Z,19.86
2023-03-23T16:58:17.017Z,19.86
2023-03-23T17:00:49.156Z,19.86
2023-03-23T17:03:18.463Z,19.86
2023-03-23T17:05:48.705Z,19.89
2023-03-23T17:08:19.144Z,19.89
2023-03-23T17:10:48.565Z,19.88
2023-03-23T17:13:17.546Z,19.90
2023-03-23T17:15:47.627Z,19.90
2023-03-23T17:18:16.935Z,19.89
2023-03-23T17:20:45.708Z,19.92
2023-03-23T17:23:14.227Z,19.92
2023-03-23T17:25:45.169Z,19.93
2023-03-23T17:28:14.045Z,19.94
2023-03-23T17:30:43.184Z,19.94
2023-03-23T17:33:12.060Z,19.96
2023-03-23T17:35:40.840Z,19.95
2023-03-23T17:38:09.355Z,19.96
2023-03-23T17:40:37.790Z,19.95
2023-03-23T17:43:07.588Z,19.94
2023-03-23T17:45:36.526Z,19.93
2023-03-23T17:48:07.673Z,19.92
2023-03-23T17:50:36.923Z,19.92
2023-03-23T17:53:05.814Z,19.93
2023-03-23T17:55:34.472Z,19.93
2023-03-23T17:58:03.198Z,19.94
2023-03-23T18:00:33.252Z,19.93
2023-03-23T18:03:02.216Z,19.92
2023-03-23T18:05:31.869Z,19.94
2023-03-23T18:08:00.725Z,19.94
2023-03-23T18:10:29.161Z,19.93
2023-03-23T18:12:57.718Z,19.93
2023-03-23T18:15:28.208Z,19.94
2023-03-23T18:17:58.984Z,19.93
2023-03-23T18:20:28.229Z,19.93
2023-03-23T18:22:56.988Z,19.93
2023-03-23T18:25:25.964Z,19.93
2023-03-23T18:27:54.399Z,19.91
2023-03-23T18:30:23.178Z,19.90
2023-03-23T18:32:51.950Z,19.91
2023-03-23T18:35:21.823Z,19.91
2023-03-23T18:37:50.419Z,19.90
2023-03-23T18:40:19.922Z,19.90
2023-03-23T18:42:49.162Z,19.90
2023-03-23T18:45:17.774Z,19.91
2023-03-23T18:47:46.280Z,19.92
2023-03-23T18:50:14.804Z,19.92
2023-03-23T18:52:45.021Z,19.92
2023-03-23T18:55:13.541Z,19.91
2023-03-23T18:57:42.075Z,19.93
2023-03-23T19:00:11.891Z,19.93
2023-03-23T19:02:40.471Z,19.94
2023-03-23T19:05:10.937Z,19.96
2023-03-23T19:07:39.688Z,19.98
2023-03-23T19:10:09.723Z,19.98
2023-03-23T19:12:38.523Z,20.01
2023-03-23T19:15:08.166Z,20.02
2023-03-23T19:17:37.638Z,20.02
2023-03-23T19:22:40.893Z,20.04
2023-03-23T19:25:11.286Z,20.05
2023-03-23T19:28:08.150Z,20.06
2023-03-23T19:30:28.264Z,20.07
2023-03-23T19:32:56.891Z,20.07
2023-03-23T19:35:26.555Z,20.07
2023-03-23T19:37:54.993Z,20.08
2023-03-23T19:40:39.558Z,20.07
2023-03-23T19:43:09.848Z,20.05
2023-03-23T19:45:38.529Z,20.03
2023-03-23T19:48:07.667Z,20.01
2023-03-23T19:50:38.539Z,20.01
2023-03-23T19:53:07.289Z,20.02
2023-03-23T19:55:37.238Z,20.02
2023-03-23T19:58:06.026Z,20.03
2023-03-23T20:00:35.924Z,20.05
2023-03-23T20:03:05.111Z,20.05
2023-03-23T20:05:34.293Z,20.07
2023-03-23T20:08:04.660Z,20.07
2023-03-23T20:10:35.561Z,20.09
2023-03-23T20:13:08.185Z,20.09
2023-03-23T20:15:36.717Z,20.10
2023-03-23T20:18:07.201Z,20.08
2023-03-23T20:20:36.746Z,20.10
2023-03-23T20:23:07.836Z,20.10
2023-03-23T20:25:36.970Z,20.09
2023-03-23T20:28:07.313Z,20.10
2023-03-23T20:30:36.504Z,20.12
2023-03-23T20:33:05.426Z,20.12
2023-03-23T20:35:34.078Z,20.12
2023-03-23T20:38:02.573Z,20.12
2023-03-23T20:40:31.347Z,20.13
2023-03-23T20:43:00.485Z,20.14
2023-03-23T20:45:30.359Z,20.14
2023-03-23T20:48:02.129Z,20.13
2023-03-23T20:50:30.912Z,20.15
2023-03-23T20:52:59.404Z,20.16
2023-03-23T20:55:28.569Z,20.16
2023-03-23T20:57:57.099Z,20.16
2023-03-23T21:00:25.630Z,20.16
2023-03-23T21:02:55.881Z,20.17
2023-03-23T21:05:25.201Z,20.17
2023-03-23T21:07:55.694Z,20.17
2023-03-23T21:10:25.726Z,20.18
2023-03-23T21:12:54.508Z,20.19
2023-03-23T21:15:23.049Z,20.18
2023-03-23T21:17:51.968Z,20.19
2023-03-23T21:20:23.774Z,20.18
2023-03-23T21:22:52.254Z,20.17
2023-03-23T21:25:22.049Z,20.20
2023-03-23T21:28:04.320Z,20.20
2023-03-23T21:30:32.774Z,20.21
2023-03-23T21:33:01.301Z,20.22
2023-03-23T21:35:31.070Z,20.19
2023-03-23T21:37:59.706Z,20.18
2023-03-23T21:40:28.228Z,20.15
2023-03-23T21:42:56.758Z,20.13
2023-03-23T21:45:26.098Z,20.10
2023-03-23T21:47:57.042Z,20.08
2023-03-23T21:50:26.093Z,20.06
2023-03-23T21:52:55.911Z,20.05
2023-03-23T21:55:25.264Z,20.04
2023-03-23T21:57:53.794Z,20.02
2023-03-23T22:00:22.910Z,20.01
2023-03-23T22:02:53.112Z,19.99
2023-03-23T22:05:22.505Z,19.98
2023-03-23T22:07:51.761Z,19.98
2023-03-23T22:10:21.997Z,19.98
2023-03-23T22:12:53.653Z,19.96
2023-03-23T22:15:27.781Z,19.96
2023-03-23T22:17:56.562Z,19.95
2023-03-23T22:20:25.553Z,19.95
2023-03-23T22:22:54.403Z,19.95
2023-03-23T22:25:24.447Z,19.94
2023-03-23T22:27:55.340Z,19.93
2023-03-23T22:30:24.511Z,19.93
2023-03-23T22:32:53.158Z,19.93
2023-03-23T22:35:21.740Z,19.92
2023-03-23T22:37:50.436Z,19.92
2023-03-23T22:40:19.633Z,19.92
2023-03-23T22:42:49.509Z,19.91
2023-03-23T22:45:18.647Z,19.89
2023-03-23T22:47:47.399Z,19.89
2023-03-23T22:50:16.166Z,19.87
2023-03-23T22:52:44.773Z,19.85
2023-03-23T22:55:13.367Z,19.86
2023-03-23T22:57:41.981Z,19.84
2023-03-23T23:00:15.217Z,19.84
2023-03-23T23:02:44.531Z,19.82
2023-03-23T23:05:13.764Z,19.83
2023-03-23T23:07:42.421Z,19.83
2023-03-23T23:10:11.451Z,19.81
2023-03-23T23:12:42.313Z,19.81
2023-03-23T23:15:14.471Z,19.81
2023-03-23T23:17:43.322Z,19.80
2023-03-23T23:20:14.228Z,19.81
2023-03-23T23:22:44.539Z,19.80
2023-03-23T23:25:13.637Z,19.80
2023-03-23T23:27:42.300Z,19.79
2023-03-23T23:30:13.439Z,19.80
2023-03-23T23:32:44.569Z,19.78
2023-03-23T23:35:14.116Z,19.78
2023-03-23T23:37:42.694Z,19.77
2023-03-23T23:40:14.884Z,19.78
2023-03-23T23:42:44.554Z,19.77
2023-03-23T23:45:16.276Z,19.77
2023-03-23T23:47:45.625Z,19.74
2023-03-23T23:50:15.457Z,19.76
2023-03-23T23:52:44.691Z,19.76
2023-03-23T23:55:16.593Z,19.77
2023-03-23T23:57:46.487Z,19.77
